createdAt,value
2022-12-01T00:01:30.871Z,74.33
2022-12-01T00:03:58.853Z,73.76
2022-12-01T00:06:28.192Z,73.72
2022-12-01T00:09:19.262Z,73.70
2022-12-01T00:11:48.544Z,74.09
2022-12-01T00:14:16.851Z,73.95
2022-12-01T00:16:45.025Z,73.96
2022-12-01T00:19:12.969Z,74.02
2022-12-01T00:21:42.421Z,73.81
2022-12-01T00:24:11.194Z,74.07
2022-12-01T00:26:39.448Z,74.03
2022-12-01T00:29:07.323Z,74.08
2022-12-01T00:31:35.540Z,73.71
2022-12-01T00:34:06.885Z,74.05
2022-12-01T00:36:39.169Z,73.67
2022-12-01T00:39:08.817Z,73.86
2022-12-01T00:41:36.631Z,73.63
2022-12-01T00:44:04.571Z,74.01
2022-12-01T00:46:32.575Z,73.66
2022-12-01T00:49:00.424Z,73.90
2022-12-01T00:51:28.392Z,73.62
2022-12-01T00:53:56.210Z,73.66
2022-12-01T00:56:25.351Z,73.51
2022-12-01T00:58:53.179Z,73.82
2022-12-01T01:01:21.261Z,73.73
2022-12-01T01:03:49.770Z,73.69
2022-12-01T01:06:17.795Z,73.51
2022-12-01T01:08:46.301Z,73.59
2022-12-01T01:11:14.147Z,73.52
2022-12-01T01:13:43.383Z,73.33
2022-12-01T01:16:14.990Z,73.44
2022-12-01T01:18:43.113Z,73.60
2022-12-01T01:21:14.200Z,73.68
2022-12-01T01:23:42.098Z,73.64
2022-12-01T01:26:14.108Z,73.29
2022-12-01T01:28:43.479Z,73.19
2022-12-01T01:31:13.745Z,73.53
2022-12-01T01:33:41.888Z,73.31
2022-12-01T01:36:10.644Z,73.32
2022-12-01T01:38:38.944Z,73.58
2022-12-01T01:41:08.184Z,73.64
2022-12-01T01:43:46.684Z,73.72
2022-12-01T01:46:17.435Z,73.54
2022-12-01T01:48:49.027Z,73.76
2022-12-01T01:51:20.371Z,73.75
2022-12-01T01:53:50.867Z,73.75
2022-12-01T01:56:19.056Z,73.72
2022-12-01T01:58:48.452Z,73.84
2022-12-01T02:01:17.073Z,73.74
2022-12-01T02:03:46.293Z,73.82
2022-12-01T02:06:14.704Z,73.99
2022-12-01T02:08:42.503Z,74.00
2022-12-01T02:11:33.127Z,73.80
2022-12-01T02:14:09.546Z,73.68
2022-12-01T02:16:45.966Z,73.71
2022-12-01T02:19:37.920Z,73.99
2022-12-01T02:22:20.078Z,74.05
2022-12-01T02:25:20.628Z,73.79
2022-12-01T02:28:22.048Z,73.50
2022-12-01T02:30:53.057Z,73.33
2022-12-01T02:33:29.072Z,73.59
2022-12-01T02:36:02.707Z,73.59
2022-12-01T02:38:34.447Z,74.13
2022-12-01T02:41:10.347Z,73.57
2022-12-01T02:43:46.727Z,73.76
2022-12-01T02:46:21.646Z,73.89
2022-12-01T02:48:52.620Z,73.92
2022-12-01T02:51:23.928Z,74.10
2022-12-01T02:53:52.463Z,73.64
2022-12-01T02:56:24.308Z,73.78
2022-12-01T02:58:52.732Z,73.86
2022-12-01T03:01:41.330Z,73.99
2022-12-01T03:04:46.316Z,73.99
2022-12-01T03:07:27.803Z,74.02
2022-12-01T03:10:04.925Z,73.87
2022-12-01T03:12:38.899Z,73.95
2022-12-01T03:15:10.680Z,73.77
2022-12-01T03:17:46.258Z,73.82
2022-12-01T03:20:19.848Z,73.83
2022-12-01T03:22:53.888Z,73.76
2022-12-01T03:25:26.241Z,74.00
2022-12-01T03:28:20.207Z,73.89
2022-12-01T03:30:46.308Z,73.87
2022-12-01T03:33:22.847Z,74.20
2022-12-01T03:35:55.212Z,74.05
2022-12-01T03:38:25.898Z,73.80
2022-12-01T03:40:59.038Z,74.05
2022-12-01T03:43:31.712Z,74.01
2022-12-01T03:46:05.708Z,74.15
2022-12-01T03:48:35.573Z,74.14
2022-12-01T03:51:10.808Z,74.17
2022-12-01T03:53:48.162Z,73.94
2022-12-01T03:56:20.845Z,74.42
2022-12-01T03:58:52.173Z,74.45
2022-12-01T04:01:22.285Z,74.42
2022-12-01T04:03:51.589Z,74.07
2022-12-01T04:06:19.464Z,74.31
2022-12-01T04:08:47.313Z,74.45
2022-12-01T04:11:33.107Z,74.33
2022-12-01T04:14:01.031Z,74.53
2022-12-01T04:16:29.116Z,74.39
2022-12-01T04:18:58.503Z,74.50
2022-12-01T04:21:26.325Z,74.40
2022-12-01T04:24:10.893Z,74.46
2022-12-01T04:26:39.421Z,74.57
2022-12-01T04:29:10.869Z,74.59
2022-12-01T04:31:39.288Z,74.22
2022-12-01T04:34:09.035Z,74.34
2022-12-01T04:36:36.869Z,74.60
2022-12-01T04:39:05.224Z,74.60
2022-12-01T04:41:33.177Z,73.93
2022-12-01T04:44:01.013Z,74.04
2022-12-01T04:46:28.966Z,73.91
2022-12-01T04:48:56.875Z,74.15
2022-12-01T04:51:26.122Z,73.87
2022-12-01T04:53:54.020Z,74.29
2022-12-01T04:56:21.940Z,74.31
2022-12-01T04:58:49.799Z,74.25
2022-12-01T05:01:19.302Z,74.06
2022-12-01T05:03:49.383Z,74.31
2022-12-01T05:06:19.536Z,74.17
2022-12-01T05:08:49.203Z,73.95
2022-12-01T05:11:18.023Z,73.85
2022-12-01T05:13:47.520Z,74.17
2022-12-01T05:16:17.386Z,74.24
2022-12-01T05:18:49.415Z,73.64
2022-12-01T05:24:40.009Z,74.19
2022-12-01T06:23:01.093Z,74.56
2022-12-01T06:28:36.948Z,74.39
2022-12-01T06:31:06.715Z,74.03
2022-12-01T07:55:03.456Z,73.85
2022-12-01T07:57:32.060Z,73.73
2022-12-01T08:00:00.977Z,73.91
2022-12-01T08:06:00.980Z,73.50
2022-12-01T09:56:56.015Z,72.25
2022-12-01T10:46:31.530Z,69.83
2022-12-01T10:49:12.047Z,69.76
2022-12-01T10:51:57.251Z,69.35
2022-12-01T10:54:34.301Z,68.54
2022-12-01T10:57:04.607Z,67.89
2022-12-01T10:59:39.327Z,67.84
2022-12-01T11:02:24.511Z,68.05
2022-12-01T11:05:01.373Z,67.41
2022-12-01T11:07:44.684Z,67.37
2022-12-01T11:10:22.190Z,67.03
2022-12-01T11:13:01.046Z,66.48
2022-12-01T11:15:34.991Z,65.83
2022-12-01T11:18:11.506Z,64.24
2022-12-01T11:20:42.409Z,63.61
2022-12-01T11:23:30.258Z,64.15
2022-12-01T11:26:11.543Z,63.88
2022-12-01T11:28:53.552Z,63.86
2022-12-01T11:31:27.231Z,63.54
2022-12-01T11:33:58.868Z,63.15
2022-12-01T11:36:40.464Z,63.26
2022-12-01T11:39:27.361Z,64.10
2022-12-01T11:42:03.602Z,63.33
2022-12-01T11:44:50.723Z,62.56
2022-12-01T11:47:26.859Z,62.91
2022-12-01T11:50:02.704Z,62.33
2022-12-01T11:52:44.412Z,61.92
2022-12-01T11:55:24.580Z,62.06
2022-12-01T11:58:00.753Z,61.31
2022-12-01T12:00:32.841Z,61.00
2022-12-01T12:03:26.476Z,60.92
2022-12-01T12:06:39.356Z,61.52
2022-12-01T12:09:27.317Z,61.07
2022-12-01T12:12:08.361Z,60.86
2022-12-01T12:14:58.641Z,60.57
2022-12-01T12:17:53.484Z,61.09
2022-12-01T12:20:53.435Z,60.51
2022-12-01T12:23:51.651Z,61.19
2022-12-01T12:26:27.513Z,61.19
2022-12-01T12:29:15.109Z,61.01
2022-12-01T12:32:00.789Z,60.93
2022-12-01T12:34:50.462Z,61.22
2022-12-01T12:37:26.412Z,60.48
2022-12-01T12:40:27.813Z,60.79
2022-12-01T12:43:08.877Z,60.82
2022-12-01T12:45:56.139Z,61.20
2022-12-01T12:49:11.711Z,61.62
2022-12-01T12:51:41.243Z,61.74
2022-12-01T12:54:23.191Z,62.12
2022-12-01T12:57:05.065Z,61.85
2022-12-01T12:59:51.052Z,62.17
2022-12-01T13:02:27.990Z,61.27
2022-12-01T13:05:03.829Z,62.10
2022-12-01T13:07:38.820Z,62.08
2022-12-01T13:10:18.286Z,61.67
2022-12-01T13:12:56.171Z,61.91
2022-12-01T13:15:28.200Z,62.09
2022-12-01T13:18:05.058Z,61.48
2022-12-01T13:20:37.833Z,61.44
2022-12-01T13:23:10.076Z,61.07
2022-12-01T13:25:41.442Z,60.92
2022-12-01T13:28:19.885Z,61.28
2022-12-01T13:31:01.774Z,61.17
2022-12-01T13:33:31.671Z,60.93
2022-12-01T13:36:38.212Z,61.41
2022-12-01T13:39:04.040Z,61.44
2022-12-01T13:41:39.481Z,61.40
2022-12-01T13:44:22.057Z,61.06
2022-12-01T13:46:54.043Z,61.07
2022-12-01T13:49:47.629Z,61.41
2022-12-01T13:52:28.787Z,61.23
2022-12-01T13:55:24.218Z,62.04
2022-12-01T13:58:26.323Z,62.62
2022-12-01T14:01:49.602Z,62.50
2022-12-01T14:04:35.786Z,62.04
2022-12-01T14:07:39.758Z,61.95
2022-12-01T14:10:31.819Z,62.34
2022-12-01T14:13:07.257Z,61.93
2022-12-01T14:15:42.724Z,62.05
2022-12-01T14:18:34.906Z,61.97
2022-12-01T14:21:19.524Z,62.54
2022-12-01T14:24:08.847Z,62.44
2022-12-01T14:26:45.448Z,61.85
2022-12-01T14:29:29.613Z,62.30
2022-12-01T14:32:24.995Z,62.43
2022-12-01T14:35:01.101Z,62.59
2022-12-01T14:37:38.350Z,62.91
2022-12-01T14:40:14.271Z,62.89
2022-12-01T14:43:03.736Z,63.16
2022-12-01T14:45:36.634Z,62.77
2022-12-01T14:48:06.717Z,62.48
2022-12-01T14:50:46.206Z,62.47
2022-12-01T14:53:24.643Z,62.96
2022-12-01T14:55:57.616Z,63.89
2022-12-01T14:58:29.715Z,64.19
2022-12-01T15:01:07.514Z,64.66
2022-12-01T15:03:39.516Z,64.82
2022-12-01T15:06:09.846Z,64.90
2022-12-01T15:08:45.777Z,64.81
2022-12-01T15:11:25.579Z,64.73
2022-12-01T15:13:55.750Z,65.33
2022-12-01T15:16:25.754Z,65.08
2022-12-01T15:18:54.301Z,65.01
2022-12-01T15:21:27.124Z,63.94
2022-12-01T15:24:00.786Z,64.31
2022-12-01T15:26:31.990Z,63.83
2022-12-01T15:29:17.340Z,63.85
2022-12-01T15:31:47.618Z,64.02
2022-12-01T15:34:20.724Z,63.81
2022-12-01T15:36:51.368Z,63.60
2022-12-01T15:39:21.456Z,63.84
2022-12-01T15:41:53.945Z,63.48
2022-12-01T15:44:27.153Z,63.68
2022-12-01T15:46:55.255Z,63.87
2022-12-01T15:49:29.560Z,64.00
2022-12-01T15:52:08.393Z,64.14
2022-12-01T15:54:37.721Z,64.08
2022-12-01T15:57:06.801Z,64.16
2022-12-01T15:59:39.084Z,64.84
2022-12-01T16:02:16.211Z,64.73
2022-12-01T16:04:44.764Z,64.85
2022-12-01T16:07:15.243Z,65.06
2022-12-01T16:09:55.887Z,64.83
2022-12-01T16:12:25.942Z,64.85
2022-12-01T16:15:13.080Z,64.87
2022-12-01T16:17:46.277Z,64.98
2022-12-01T16:20:25.701Z,64.99
2022-12-01T16:22:58.747Z,65.10
2022-12-01T16:25:35.360Z,65.33
2022-12-01T16:28:04.238Z,65.09
2022-12-01T16:30:37.783Z,65.23
2022-12-01T16:33:08.319Z,65.56
2022-12-01T16:35:36.350Z,65.45
2022-12-01T16:38:15.825Z,65.70
2022-12-01T16:41:07.790Z,65.31
2022-12-01T16:43:36.422Z,65.40
2022-12-01T16:46:07.900Z,65.59
2022-12-01T16:48:44.982Z,65.70
2022-12-01T16:51:17.278Z,65.86
2022-12-01T16:53:53.527Z,66.07
2022-12-01T16:56:23.362Z,66.00
2022-12-01T16:58:51.296Z,65.69
2022-12-01T17:01:19.481Z,65.93
2022-12-01T17:03:47.390Z,66.50
2022-12-01T17:06:18.845Z,66.27
2022-12-01T17:08:46.780Z,66.28
2022-12-01T17:11:16.049Z,66.08
2022-12-01T17:13:44.098Z,66.09
2022-12-01T17:16:18.740Z,66.44
2022-12-01T17:18:46.887Z,66.24
2022-12-01T17:21:15.397Z,66.21
2022-12-01T17:23:43.272Z,66.50
2022-12-01T17:26:13.220Z,66.17
2022-12-01T17:28:42.837Z,66.10
2022-12-01T17:31:11.281Z,65.95
2022-12-01T17:33:39.522Z,66.20
2022-12-01T17:36:11.568Z,65.92
2022-12-01T17:38:41.887Z,66.22
2022-12-01T17:41:12.209Z,66.08
2022-12-01T17:43:42.492Z,66.11
2022-12-01T17:46:13.128Z,65.89
2022-12-01T17:48:42.986Z,66.09
2022-12-01T17:51:12.386Z,66.14
2022-12-01T17:53:40.558Z,66.12
2022-12-01T17:56:09.949Z,65.65
2022-12-01T17:58:38.604Z,65.28
2022-12-01T18:01:13.189Z,65.28
2022-12-01T18:03:41.798Z,65.32
2022-12-01T18:06:10.440Z,65.32
2022-12-01T18:08:39.627Z,64.80
2022-12-01T18:11:10.277Z,64.77
2022-12-01T18:13:39.355Z,64.90
2022-12-01T18:16:11.100Z,64.80
2022-12-01T18:18:40.520Z,64.49
2022-12-01T18:21:09.651Z,64.30
2022-12-01T18:23:38.082Z,64.70
2022-12-01T18:26:12.143Z,64.46
2022-12-01T18:28:43.406Z,64.68
2022-12-01T18:31:16.443Z,64.90
2022-12-01T18:33:46.048Z,64.78
2022-12-01T18:36:17.991Z,64.62
2022-12-01T18:38:54.443Z,64.96
2022-12-01T18:41:22.410Z,64.85
2022-12-01T18:43:50.604Z,64.84
2022-12-01T18:46:21.121Z,64.98
2022-12-01T18:48:53.257Z,64.99
2022-12-01T18:51:22.217Z,64.84
2022-12-01T18:53:54.812Z,65.02
2022-12-01T18:56:22.842Z,64.91
2022-12-01T18:58:57.242Z,64.97
2022-12-01T19:01:31.856Z,64.94
2022-12-01T19:04:00.684Z,64.90
2022-12-01T19:06:30.766Z,64.73
2022-12-01T19:09:01.413Z,64.83
2022-12-01T19:11:30.054Z,64.68
2022-12-01T19:13:58.947Z,64.75
2022-12-01T19:16:31.041Z,65.02
2022-12-01T19:18:59.099Z,64.79
2022-12-01T19:21:27.006Z,64.99
2022-12-01T19:23:55.193Z,65.28
2022-12-01T19:26:25.482Z,65.25
2022-12-01T19:28:53.756Z,65.25
2022-12-01T19:31:23.851Z,64.93
2022-12-01T19:33:54.692Z,64.98
2022-12-01T19:36:25.066Z,65.42
2022-12-01T19:38:53.926Z,65.13
2022-12-01T19:41:25.303Z,64.94
2022-12-01T19:43:56.209Z,64.30
2022-12-01T19:46:27.102Z,64.36
2022-12-01T19:49:00.117Z,64.36
2022-12-01T19:51:31.224Z,64.35
2022-12-01T19:53:59.695Z,64.19
2022-12-01T19:56:28.951Z,64.60
2022-12-01T19:58:58.502Z,64.29
2022-12-01T20:01:27.379Z,64.25
2022-12-01T20:03:56.743Z,64.02
2022-12-01T20:06:26.819Z,64.22
2022-12-01T20:08:56.569Z,63.81
2022-12-01T20:11:24.571Z,63.73
2022-12-01T20:13:53.997Z,63.32
2022-12-01T20:16:24.193Z,63.31
2022-12-01T20:18:52.773Z,63.29
2022-12-01T20:21:24.267Z,63.40
2022-12-01T20:23:55.244Z,63.58
2022-12-01T20:26:28.961Z,63.72
2022-12-01T20:29:01.457Z,63.61
2022-12-01T20:31:31.650Z,63.94
2022-12-01T20:34:01.714Z,63.65
2022-12-01T20:36:31.850Z,63.29
2022-12-01T20:39:00.713Z,63.37
2022-12-01T20:41:28.688Z,63.32
2022-12-01T20:43:56.657Z,63.36
2022-12-01T20:46:24.746Z,63.55
2022-12-01T20:48:53.014Z,63.55
2022-12-01T20:51:20.929Z,63.53
2022-12-01T20:54:19.659Z,63.28
2022-12-01T20:56:39.386Z,63.23
2022-12-01T20:59:07.889Z,63.52
2022-12-01T21:01:36.313Z,63.34
2022-12-01T21:04:06.129Z,63.95
2022-12-01T21:06:34.003Z,63.34
2022-12-01T21:09:04.091Z,63.36
2022-12-01T21:11:53.611Z,63.48
2022-12-01T21:14:25.794Z,63.09
2022-12-01T21:16:57.843Z,63.14
2022-12-01T21:19:31.890Z,63.61
2022-12-01T21:22:00.208Z,63.80
2022-12-01T21:24:36.772Z,63.87
2022-12-01T21:27:14.044Z,63.50
2022-12-01T21:29:45.025Z,64.16
2022-12-01T21:32:15.366Z,63.62
2022-12-01T21:34:44.806Z,63.89
2022-12-01T21:37:24.327Z,63.87
2022-12-01T21:39:58.370Z,63.46
2022-12-01T21:42:28.778Z,63.52
2022-12-01T21:44:57.745Z,63.56
2022-12-01T21:47:28.597Z,63.62
2022-12-01T21:49:58.839Z,63.44
2022-12-01T21:52:31.825Z,63.98
2022-12-01T21:55:31.209Z,64.06
2022-12-01T21:57:59.210Z,63.97
2022-12-01T22:00:30.050Z,63.87
2022-12-01T22:03:32.402Z,63.99
2022-12-01T22:06:30.137Z,63.97
2022-12-01T22:09:02.050Z,64.14
2022-12-01T22:11:32.195Z,64.01
2022-12-01T22:14:13.824Z,64.07
2022-12-01T22:16:43.955Z,64.17
2022-12-01T22:19:26.018Z,63.89
2022-12-01T22:22:00.600Z,64.16
2022-12-01T22:24:33.858Z,64.39
2022-12-01T22:27:22.388Z,64.48
2022-12-01T22:29:53.303Z,64.48
2022-12-01T22:32:45.468Z,64.56
2022-12-01T22:35:34.364Z,64.58
2022-12-01T22:38:29.881Z,64.50
2022-12-01T22:41:00.087Z,64.58
2022-12-01T22:43:33.494Z,64.58
2022-12-01T22:46:30.815Z,64.62
2022-12-01T22:49:00.404Z,64.47
2022-12-01T22:51:42.400Z,64.30
2022-12-01T22:54:35.805Z,64.45
2022-12-01T22:57:12.798Z,64.79
2022-12-01T22:59:44.446Z,64.75
2022-12-01T23:02:21.099Z,64.57
2022-12-01T23:04:52.334Z,64.68
2022-12-01T23:07:33.489Z,64.65
2022-12-01T23:22:40.126Z,64.45
2022-12-01T23:25:15.025Z,64.64
2022-12-01T23:27:43.855Z,64.26
2022-12-01T23:30:13.909Z,65.01
2022-12-01T23:32:42.416Z,64.35
2022-12-01T23:35:16.675Z,64.18
2022-12-01T23:37:48.769Z,64.20
2022-12-01T23:40:30.952Z,64.54
2022-12-01T23:43:00.462Z,64.53
2022-12-01T23:45:29.129Z,64.74
2022-12-01T23:47:57.884Z,64.88
2022-12-01T23:50:27.870Z,64.63
2022-12-01T23:52:57.608Z,64.64
2022-12-01T23:55:29.447Z,64.66
2022-12-01T23:57:59.302Z,64.98
